Time;durP1;ratioP1;P1;durP2;ratioP2;P2;SDS_P1;SDS_P2;PMS_P1;PMS_P2;Temp;Humidity;BMP_temperature;BMP_pressure;BME280_temperature;BME280_humidity;BME280_pressure;Samples;Min_cycle;Max_cycle;Signal;HPM_P1;HPM_P2
2021/11/01 00:00:16;;;;;;;0.20;0.20;;;;;;;8.79;82.39;99760.94;4960058;28;20090;-69
2021/11/01 00:02:42;;;;;;;0.20;0.20;;;;;;;8.78;82.50;99762.63;4960694;28;20038;-70
2021/11/01 00:05:09;;;;;;;0.10;0.10;;;;;;;8.79;82.41;99766.16;4957916;28;20059;-69
2021/11/01 00:07:34;;;;;;;0.03;0.03;;;;;;;8.78;82.13;99770.47;4940516;29;20043;-68
2021/11/01 00:10:00;;;;;;;0.13;0.13;;;;;;;8.75;82.07;99770.44;4952813;29;20030;-68
2021/11/01 00:12:30;;;;;;;0.20;0.20;;;;;;;8.74;82.47;99760.84;4959944;28;20437;-68
2021/11/01 00:14:57;;;;;;;0.10;0.10;;;;;;;8.73;82.42;99763.41;4957574;28;20074;-68
2021/11/01 00:17:26;;;;;;;0.10;0.10;;;;;;;8.73;82.69;99766.88;4940776;28;20371;-69
2021/11/01 00:19:55;;;;;;;0.20;0.20;;;;;;;8.75;82.14;99762.59;4941098;28;20035;-70
2021/11/01 00:22:22;;;;;;;0.17;0.17;;;;;;;8.75;82.20;99757.38;4950341;29;20286;-69
2021/11/01 00:24:48;;;;;;;0.10;0.10;;;;;;;8.73;82.29;99763.41;4960217;28;20094;-69
2021/11/01 00:27:15;;;;;;;0.13;0.13;;;;;;;8.73;81.85;99768.63;4959435;28;20031;-69
2021/11/01 00:29:40;;;;;;;0.10;0.10;;;;;;;8.74;81.70;99762.56;4957327;28;20055;-68
2021/11/01 00:32:06;;;;;;;0.13;0.13;;;;;;;8.73;81.86;99766.03;4946503;28;20050;-68
2021/11/01 00:34:31;;;;;;;0.20;0.20;;;;;;;8.69;81.91;99767.69;4972117;28;20061;-68
2021/11/01 00:36:57;;;;;;;0.30;0.30;;;;;;;8.70;81.64;99764.22;4959455;28;20390;-68
2021/11/01 00:39:23;;;;;;;0.10;0.10;;;;;;;8.66;81.85;99772.88;4962813;28;20024;-69
2021/11/01 00:41:49;;;;;;;0.30;0.30;;;;;;;8.62;81.88;99765.81;4956716;28;20041;-68
2021/11/01 00:44:14;;;;;;;0.17;0.17;;;;;;;8.62;81.18;99758.88;4955614;28;20504;-71
2021/11/01 00:46:40;;;;;;;0.10;0.10;;;;;;;8.65;80.92;99766.75;4939369;29;20062;-68
2021/11/01 00:49:06;;;;;;;0.10;0.10;;;;;;;8.67;81.17;99764.19;4955312;29;20302;-68
2021/11/01 00:51:36;;;;;;;0.20;0.20;;;;;;;8.66;80.92;99757.22;4958252;28;20026;-69
2021/11/01 00:54:02;;;;;;;0.20;0.20;;;;;;;8.63;80.86;99755.41;4958288;28;20331;-70
2021/11/01 00:56:27;;;;;;;0.10;0.10;;;;;;;8.66;80.60;99754.59;4957392;28;20187;-70
2021/11/01 00:58:52;;;;;;;0.20;0.20;;;;;;;8.63;80.56;99760.63;4958113;28;20402;-69
2021/11/01 01:01:18;;;;;;;0.00;0.00;;;;;;;8.61;80.37;99751.00;4958254;29;20020;-70
2021/11/01 01:03:44;;;;;;;0.20;0.20;;;;;;;8.63;80.50;99757.13;4959652;29;20095;-69
2021/11/01 01:06:10;;;;;;;0.20;0.20;;;;;;;8.61;80.63;99756.22;4955530;29;20020;-69
2021/11/01 01:08:36;;;;;;;0.20;0.20;;;;;;;8.61;80.64;99757.09;4941548;29;20038;-69
2021/11/01 01:11:01;;;;;;;0.10;0.10;;;;;;;8.60;80.47;99744.03;4958301;29;20035;-69
2021/11/01 01:13:29;;;;;;;0.20;0.20;;;;;;;8.57;79.67;99741.34;4958520;29;20406;-69
2021/11/01 01:16:10;;;;;;;0.20;0.20;;;;;;;8.56;80.07;99745.72;4958907;29;20328;-69
2021/11/01 01:18:38;;;;;;;0.20;0.20;;;;;;;8.54;79.97;99738.69;4959570;28;20264;-69
2021/11/01 01:23:48;;;;;;;0.10;0.10;;;;;;;8.48;80.25;99737.69;4959534;29;20407;-68
2021/11/01 01:26:15;;;;;;;0.30;0.30;;;;;;;8.44;80.56;99729.78;4958689;29;20109;-66
2021/11/01 01:28:42;;;;;;;0.20;0.20;;;;;;;8.37;80.94;99729.69;4958743;29;20023;-70
2021/11/01 01:31:09;;;;;;;0.20;0.20;;;;;;;8.37;80.96;99731.41;4957721;28;20355;-69
2021/11/01 01:33:35;;;;;;;0.20;0.20;;;;;;;8.35;80.78;99725.28;4958697;29;20059;-69
2021/11/01 01:36:00;;;;;;;0.13;0.13;;;;;;;8.39;80.38;99706.22;4958669;28;20066;-69
2021/11/01 01:38:28;;;;;;;0.20;0.20;;;;;;;8.40;79.99;99707.97;4959172;29;20087;-69
2021/11/01 01:40:54;;;;;;;0.10;0.10;;;;;;;8.42;80.03;99715.81;4958303;29;20027;-69
2021/11/01 01:43:20;;;;;;;0.10;0.10;;;;;;;8.37;80.11;99700.09;4958446;29;20409;-69
2021/11/01 01:45:46;;;;;;;0.30;0.30;;;;;;;8.32;80.46;99696.50;4958192;29;20039;-69
2021/11/01 01:48:13;;;;;;;0.30;0.30;;;;;;;8.36;79.87;99696.59;4957291;28;20043;-70
2021/11/01 01:50:39;;;;;;;0.20;0.20;;;;;;;8.34;79.64;99700.03;4959267;28;20031;-70
2021/11/01 01:53:06;;;;;;;0.37;0.37;;;;;;;8.34;79.90;99705.25;4958114;28;20034;-68
2021/11/01 01:55:31;;;;;;;0.17;0.17;;;;;;;8.35;79.21;99692.22;4959026;28;20382;-70
2021/11/01 01:57:57;;;;;;;0.20;0.20;;;;;;;8.37;79.87;99690.56;4942189;29;20031;-70
2021/11/01 02:02:49;;;;;;;0.10;0.10;;;;;;;8.31;79.73;99693.03;4958379;29;20027;-68
2021/11/01 02:05:15;;;;;;;0.10;0.10;;;;;;;8.33;79.75;99690.44;4958707;29;20026;-68
2021/11/01 02:07:47;;;;;;;0.20;0.20;;;;;;;8.31;79.84;99695.63;4960197;28;20027;-69
2021/11/01 02:10:16;;;;;;;0.13;0.13;;;;;;;8.28;79.99;99692.97;4961378;28;20066;-69
2021/11/01 02:12:42;;;;;;;0.20;0.20;;;;;;;8.29;79.73;99694.72;4962327;29;20398;-71
2021/11/01 02:15:10;;;;;;;0.10;0.10;;;;;;;8.28;79.99;99686.88;4962243;29;20023;-70
2021/11/01 02:17:36;;;;;;;0.10;0.10;;;;;;;8.33;79.09;99695.66;4960744;29;20042;-69
2021/11/01 02:20:09;;;;;;;0.20;0.20;;;;;;;8.33;79.82;99695.66;4962507;28;20274;-70
2021/11/01 02:22:39;;;;;;;0.20;0.20;;;;;;;8.27;80.01;99699.03;4961418;29;20050;-70
2021/11/01 02:25:09;;;;;;;0.20;0.20;;;;;;;8.29;79.42;99706.88;4962638;28;20035;-71
2021/11/01 02:27:37;;;;;;;0.20;0.20;;;;;;;8.27;79.61;99708.59;4961558;28;20392;-69
2021/11/01 02:30:06;;;;;;;0.13;0.13;;;;;;;8.28;79.98;99703.38;4961488;29;20082;-71
2021/11/01 02:32:34;;;;;;;0.30;0.30;;;;;;;8.25;79.98;99714.66;4961284;29;20046;-69
2021/11/01 02:35:00;;;;;;;0.40;0.40;;;;;;;8.31;80.03;99713.00;4962260;28;20390;-70
2021/11/01 02:37:25;;;;;;;0.10;0.10;;;;;;;8.31;79.80;99707.78;4961607;29;20034;-69
2021/11/01 02:39:54;;;;;;;0.30;0.30;;;;;;;8.33;79.27;99706.09;4961587;28;20090;-70
2021/11/01 02:42:21;;;;;;;0.10;0.10;;;;;;;8.35;79.07;99699.19;4957822;29;20026;-72
2021/11/01 02:44:52;;;;;;;0.30;0.30;;;;;;;8.34;79.44;99705.25;4942335;29;20035;-69
2021/11/01 02:47:17;;;;;;;0.17;0.17;;;;;;;8.37;78.99;99705.31;4942464;29;20020;-75
2021/11/01 02:49:42;;;;;;;0.10;0.10;;;;;;;8.41;78.83;99709.72;4942901;29;20122;-70
2021/11/01 02:52:08;;;;;;;0.27;0.27;;;;;;;8.48;78.25;99708.13;4942647;29;20042;-71
2021/11/01 02:54:33;;;;;;;0.20;0.20;;;;;;;8.55;77.65;99699.59;4943009;29;20040;-69
2021/11/01 02:56:59;;;;;;;0.40;0.40;;;;;;;8.63;77.34;99707.56;4941841;28;20047;-70
2021/11/01 02:59:25;;;;;;;0.43;0.43;;;;;;;8.62;77.34;99711.91;4957563;29;20035;-70
2021/11/01 03:01:51;;;;;;;0.20;0.20;;;;;;;8.59;77.39;99709.22;4961623;29;20045;-69
2021/11/01 03:04:17;;;;;;;0.20;0.20;;;;;;;8.60;77.82;99721.41;4961833;28;20038;-70
2021/11/01 03:06:42;;;;;;;0.27;0.27;;;;;;;8.63;77.42;99705.84;4961866;28;20034;-69
2021/11/01 03:09:07;;;;;;;0.30;0.30;;;;;;;8.62;77.47;99708.41;4960654;29;20103;-69
2021/11/01 03:11:33;;;;;;;0.20;0.20;;;;;;;8.59;77.84;99717.06;4944887;29;20031;-69
2021/11/01 03:13:58;;;;;;;0.13;0.13;;;;;;;8.57;77.34;99705.72;4960796;28;20302;-70
2021/11/01 03:16:25;;;;;;;0.30;0.30;;;;;;;8.62;76.96;99711.00;4960836;29;20114;-69
2021/11/01 03:19:03;;;;;;;0.30;0.30;;;;;;;8.63;77.49;99720.59;4960551;28;20023;-69
2021/11/01 03:21:29;;;;;;;0.20;0.20;;;;;;;8.57;77.04;99710.94;4961558;28;20039;-68
2021/11/01 03:23:55;;;;;;;0.30;0.30;;;;;;;8.57;77.13;99713.53;4960531;28;20027;-70
2021/11/01 03:26:23;;;;;;;0.30;0.30;;;;;;;8.58;77.31;99709.22;4944596;29;20050;-68
2021/11/01 03:28:51;;;;;;;0.10;0.10;;;;;;;8.58;77.31;99712.69;4960743;29;20027;-68
2021/11/01 03:31:19;;;;;;;0.20;0.20;;;;;;;8.61;76.62;99697.06;4943663;29;20066;-70
2021/11/01 03:33:45;;;;;;;0.20;0.20;;;;;;;8.61;76.72;99702.28;4948303;29;20042;-70
2021/11/01 03:36:11;;;;;;;0.40;0.40;;;;;;;8.55;78.00;99698.69;4942003;29;20131;-69
2021/11/01 03:38:39;;;;;;;0.10;0.10;;;;;;;8.56;77.78;99698.75;4941029;29;20035;-69
2021/11/01 03:41:08;;;;;;;0.20;0.20;;;;;;;8.49;77.87;99695.13;4941716;29;20027;-70
2021/11/01 03:43:38;;;;;;;0.20;0.20;;;;;;;8.47;78.23;99694.19;4942329;29;20020;-70
2021/11/01 03:46:05;;;;;;;0.40;0.40;;;;;;;8.48;78.03;99702.91;4924457;29;20051;-70
2021/11/01 03:48:37;;;;;;;0.20;0.20;;;;;;;8.42;78.36;99695.84;4957745;29;20110;-70
2021/11/01 03:51:10;;;;;;;0.10;0.10;;;;;;;8.39;78.55;99696.66;4960485;28;20035;-71
2021/11/01 03:53:36;;;;;;;0.20;0.20;;;;;;;8.39;79.01;99696.66;4961258;28;20036;-70
2021/11/01 03:56:03;;;;;;;0.20;0.20;;;;;;;8.32;79.42;99689.56;4959767;28;20049;-71
2021/11/01 03:58:28;;;;;;;0.10;0.10;;;;;;;8.27;79.52;99691.19;4960573;28;20039;-71
2021/11/01 04:00:54;;;;;;;0.10;0.10;;;;;;;8.32;79.30;99691.28;4959554;29;20050;-71
2021/11/01 04:03:24;;;;;;;0.20;0.20;;;;;;;8.28;79.59;99684.28;4960537;28;20472;-70
2021/11/01 04:05:54;;;;;;;0.23;0.23;;;;;;;8.31;79.22;99693.03;4960370;28;20024;-71
2021/11/01 04:08:20;;;;;;;0.10;0.10;;;;;;;8.25;80.16;99695.50;4960674;28;20035;-69
2021/11/01 04:10:45;;;;;;;0.20;0.20;;;;;;;8.24;80.63;99702.44;4959901;29;20114;-70
2021/11/01 04:13:10;;;;;;;0.20;0.20;;;;;;;8.21;80.43;99688.47;4959683;29;20035;-70
2021/11/01 04:15:43;;;;;;;0.20;0.20;;;;;;;8.25;79.88;99687.69;4960336;28;20027;-71
2021/11/01 04:18:08;;;;;;;0.20;0.20;;;;;;;8.24;80.51;99684.19;4959412;29;20278;-71
2021/11/01 04:20:49;;;;;;;0.27;0.27;;;;;;;8.25;80.10;99685.09;4960400;28;20035;-69
2021/11/01 04:23:15;;;;;;;0.20;0.20;;;;;;;8.28;80.16;99676.44;4959736;28;20114;-70
2021/11/01 04:25:41;;;;;;;0.10;0.10;;;;;;;8.31;79.56;99689.53;4960425;28;21595;-68
2021/11/01 04:28:06;;;;;;;0.20;0.20;;;;;;;8.32;79.71;99699.13;4960137;29;20415;-70
2021/11/01 04:30:38;;;;;;;0.10;0.10;;;;;;;8.32;79.71;99683.47;4959351;28;20024;-70
2021/11/01 04:33:07;;;;;;;0.20;0.20;;;;;;;8.32;79.78;99683.47;4959505;29;20023;-68
2021/11/01 04:35:36;;;;;;;0.20;0.20;;;;;;;8.30;79.92;99687.78;4943834;29;20397;-68
2021/11/01 04:38:11;;;;;;;0.10;0.10;;;;;;;8.33;79.67;99695.66;4955285;29;20038;-69
2021/11/01 04:43:46;;;;;;;0.20;0.20;;;;;;;8.37;79.58;99700.09;4940643;29;20122;-71
2021/11/01 04:54:21;;;;;;;0.20;0.20;;;;;;;8.36;79.47;99695.72;4954800;29;20073;-71
2021/11/01 04:56:46;;;;;;;0.20;0.20;;;;;;;8.36;79.08;99701.81;4959503;28;20351;-70
2021/11/01 04:59:12;;;;;;;0.17;0.17;;;;;;;8.35;79.42;99704.41;4959336;28;20252;-69
2021/11/01 05:01:40;;;;;;;0.20;0.20;;;;;;;8.34;78.88;99695.69;4959315;28;20118;-68
2021/11/01 05:04:08;;;;;;;0.20;0.20;;;;;;;8.34;79.17;99700.91;4943006;29;20048;-69
2021/11/01 05:06:35;;;;;;;0.20;0.20;;;;;;;8.35;79.17;99704.41;4959715;28;20035;-72
2021/11/01 05:09:07;;;;;;;0.30;0.30;;;;;;;8.34;78.74;99706.13;4959279;28;20035;-70
2021/11/01 05:11:38;;;;;;;0.10;0.10;;;;;;;8.33;78.77;99700.88;4959312;28;20362;-70
2021/11/01 05:14:04;;;;;;;0.10;0.10;;;;;;;8.29;78.46;99699.94;4958924;28;20062;-71
2021/11/01 05:16:41;;;;;;;0.30;0.30;;;;;;;8.31;78.90;99710.41;4958446;29;20062;-72
2021/11/01 05:19:27;;;;;;;0.27;0.27;;;;;;;8.26;78.76;99720.75;4958456;29;20272;-73
2021/11/01 05:24:47;;;;;;;0.20;0.20;;;;;;;8.17;78.42;99725.78;4958882;29;20047;-69
2021/11/01 05:29:52;;;;;;;0.10;0.10;;;;;;;8.18;78.58;99728.44;4959447;28;20042;-68
2021/11/01 05:32:22;;;;;;;0.20;0.20;;;;;;;8.20;78.26;99728.44;4958146;28;20049;-68
2021/11/01 05:34:48;;;;;;;0.20;0.20;;;;;;;8.17;78.54;99726.69;4959357;28;20054;-68
2021/11/01 05:37:13;;;;;;;0.10;0.10;;;;;;;8.11;78.94;99729.16;4958718;28;20445;-69
2021/11/01 05:39:39;;;;;;;0.20;0.20;;;;;;;8.10;78.94;99716.97;4958901;29;20035;-68
2021/11/01 05:42:05;;;;;;;0.30;0.30;;;;;;;8.14;78.84;99729.19;4958387;28;20085;-69
2021/11/01 05:44:31;;;;;;;0.30;0.30;;;;;;;8.13;78.60;99729.16;4958641;28;20050;-68
2021/11/01 05:46:57;;;;;;;0.20;0.20;;;;;;;8.18;78.27;99735.34;4958604;29;20474;-68
2021/11/01 05:49:23;;;;;;;0.10;0.10;;;;;;;8.20;78.08;99731.94;4959226;28;20154;-69
2021/11/01 05:51:51;;;;;;;0.20;0.20;;;;;;;8.19;77.85;99732.78;4958068;28;20031;-69
2021/11/01 05:54:20;;;;;;;0.20;0.20;;;;;;;8.20;77.75;99728.44;4958536;28;20113;-69
2021/11/01 06:05:42;;;;;;;0.10;0.10;;;;;;;8.16;77.71;99734.47;4959141;29;20432;-69
2021/11/01 06:07:41;;;;;;;0.20;0.20;;;;;;;8.15;78.13;99736.16;4958122;28;20031;-69
2021/11/01 06:10:16;;;;;;;0.20;0.20;;;;;;;8.16;78.16;99750.09;4958478;28;20031;-70
2021/11/01 06:15:27;;;;;;;0.20;0.20;;;;;;;8.08;77.87;99748.22;4958643;29;20098;-71
2021/11/01 06:17:53;;;;;;;0.20;0.20;;;;;;;8.06;78.43;99756.84;4954323;29;20106;-71
2021/11/01 06:20:18;;;;;;;0.20;0.20;;;;;;;8.04;78.30;99748.97;4954667;29;20352;-68
2021/11/01 06:22:44;;;;;;;0.30;0.30;;;;;;;8.01;78.94;99751.53;4938630;29;20067;-69
2021/11/01 06:25:12;;;;;;;0.27;0.27;;;;;;;8.02;78.37;99755.03;4939284;28;20122;-71
2021/11/01 06:27:38;;;;;;;0.20;0.20;;;;;;;8.02;78.14;99749.81;4939514;29;20039;-69
2021/11/01 06:30:19;;;;;;;0.20;0.20;;;;;;;8.04;78.18;99737.69;4939120;29;20411;-67
2021/11/01 06:44:00;;;;;;;0.20;0.20;;;;;;;8.13;78.88;99773.50;4957431;29;20031;-68
2021/11/01 06:52:18;;;;;;;0.30;0.30;;;;;;;8.16;78.75;99782.25;4958043;29;20097;-68
2021/11/01 06:55:09;;;;;;;0.20;0.20;;;;;;;8.14;79.27;99778.75;4961635;28;20429;-67
2021/11/01 06:57:47;;;;;;;0.30;0.30;;;;;;;8.11;79.01;99789.97;4961077;29;20058;-66
2021/11/01 07:14:25;;;;;;;0.30;0.30;;;;;;;8.23;77.89;99781.53;4942679;29;20421;-68
2021/11/01 07:17:02;;;;;;;0.20;0.20;;;;;;;8.20;77.50;99778.88;4952784;29;20063;-69
2021/11/01 07:19:53;;;;;;;;;;;;;;;8.22;77.60;99774.56;4960813;29;20027;-68
2021/11/01 08:46:41;;;;;;;0.20;0.20;;;;;;;9.00;74.12;99817.88;4959332;29;20035;-70
2021/11/01 09:02:42;;;;;;;0.40;0.40;;;;;;;9.21;73.27;99825.22;4959693;29;20034;-69
2021/11/01 09:25:56;;;;;;;0.60;0.60;;;;;;;9.53;71.68;99830.97;4959575;29;20049;-68
2021/11/01 09:28:27;;;;;;;0.20;0.20;;;;;;;9.57;71.68;99838.88;4958852;28;20066;-68
2021/11/01 09:36:28;;;;;;;0.30;0.30;;;;;;;9.62;71.27;99828.50;4952502;29;20133;-68
2021/11/01 09:39:21;;;;;;;0.30;0.30;;;;;;;9.65;71.86;99825.91;4954147;28;20118;-68
2021/11/01 09:41:46;;;;;;;0.30;0.30;;;;;;;9.74;68.92;99831.31;4957413;29;20023;-67
2021/11/01 09:44:15;;;;;;;0.20;0.20;;;;;;;9.79;69.48;99831.38;4958152;29;20081;-69
2021/11/01 09:46:41;;;;;;;0.30;0.30;;;;;;;9.85;70.16;99839.28;4958727;28;20011;-68
2021/11/01 09:49:16;;;;;;;0.30;0.30;;;;;;;9.89;69.82;99843.72;4958456;28;20027;-68
2021/11/01 09:51:49;;;;;;;0.40;0.40;;;;;;;9.95;68.48;99855.16;4958367;28;20070;-72
2021/11/01 09:54:25;;;;;;;0.20;0.20;;;;;;;9.97;68.32;99837.75;4958100;29;20050;-71
2021/11/01 09:57:07;;;;;;;0.50;0.50;;;;;;;10.04;68.55;99847.44;4958525;28;20027;-71
2021/11/01 09:59:42;;;;;;;0.20;0.20;;;;;;;10.06;68.39;99837.88;4957369;28;20408;-69
2021/11/01 10:02:10;;;;;;;0.40;0.40;;;;;;;10.09;67.64;99831.81;4954678;28;20039;-64
2021/11/01 10:04:38;;;;;;;0.33;0.33;;;;;;;10.10;67.81;99833.56;4949027;29;20050;-69
2021/11/01 10:07:25;;;;;;;0.50;0.50;;;;;;;10.19;68.48;99846.75;4957383;28;20383;-69
2021/11/01 10:09:52;;;;;;;;;;;;;;;10.22;68.38;99849.41;4956561;29;20019;-68
2021/11/01 10:12:31;;;;;;;0.30;0.30;;;;;;;10.24;67.14;99850.34;4964152;28;20243;-69
2021/11/01 10:18:05;;;;;;;0.37;0.37;;;;;;;10.36;68.54;99836.53;4955956;29;20046;-70
2021/11/01 10:20:32;;;;;;;0.50;0.50;;;;;;;10.44;67.64;99845.41;4938807;29;20023;-71
2021/11/01 10:22:59;;;;;;;0.70;0.70;;;;;;;10.44;67.61;99844.50;4957295;28;20051;-69
2021/11/01 10:25:25;;;;;;;0.50;0.50;;;;;;;10.49;68.12;99853.31;4956384;29;20031;-69
2021/11/01 10:27:59;;;;;;;0.30;0.30;;;;;;;10.50;66.85;99847.22;4957058;28;20038;-69
2021/11/01 10:30:32;;;;;;;0.30;0.30;;;;;;;10.55;65.69;99852.50;4959903;28;20019;-73
2021/11/01 10:33:00;;;;;;;0.40;0.40;;;;;;;10.56;65.75;99830.69;4960219;29;20302;-71
2021/11/01 10:35:30;;;;;;;0.50;0.50;;;;;;;10.54;66.29;99854.22;4960870;28;20277;-68
2021/11/01 10:38:16;;;;;;;0.43;0.43;;;;;;;10.61;66.43;99856.94;4961045;28;20078;-69
2021/11/01 10:43:44;;;;;;;0.50;0.50;;;;;;;10.70;66.18;99849.19;4958628;29;20282;-68
2021/11/01 11:11:30;;;;;;;0.40;0.40;;;;;;;11.13;66.32;99860.16;4961847;29;20074;-69
2021/11/01 11:14:14;;;;;;;0.37;0.37;;;;;;;11.19;64.78;99876.78;4946543;29;20027;-69
2021/11/01 11:19:53;;;;;;;0.50;0.50;;;;;;;11.31;64.51;99862.94;4958357;29;20114;-68
2021/11/01 11:28:26;;;;;;;0.40;0.40;;;;;;;11.26;63.02;99860.25;4963908;28;20041;-66
2021/11/01 11:47:22;;;;;;;0.40;0.40;;;;;;;11.47;63.39;99846.50;4963988;28;20059;-71
2021/11/01 11:49:48;;;;;;;0.30;0.30;;;;;;;11.51;62.33;99863.13;4959129;28;20057;-70
2021/11/01 11:52:14;;;;;;;0.37;0.37;;;;;;;11.52;63.30;99863.13;4960391;28;20382;-70
2021/11/01 11:54:48;;;;;;;0.40;0.40;;;;;;;11.61;63.76;99856.22;4960636;28;20029;-69
2021/11/01 11:57:25;;;;;;;0.30;0.30;;;;;;;11.63;64.06;99854.47;4960388;28;20031;-68
2021/11/01 11:59:53;;;;;;;0.37;0.37;;;;;;;11.72;62.32;99865.06;4960196;28;20078;-73
2021/11/01 12:02:37;;;;;;;0.40;0.40;;;;;;;11.73;62.44;99864.19;4960337;28;20330;-70
2021/11/01 12:05:09;;;;;;;0.30;0.30;;;;;;;11.78;63.48;99867.72;4959959;28;20035;-71
2021/11/01 12:07:45;;;;;;;0.30;0.30;;;;;;;11.80;61.84;99858.13;4960384;28;20027;-70
2021/11/01 12:10:34;;;;;;;0.43;0.43;;;;;;;11.84;61.91;99863.38;4960386;28;20023;-72
2021/11/01 12:18:50;;;;;;;0.40;0.40;;;;;;;11.81;60.67;99865.13;4960464;29;20086;-69
2021/11/01 12:21:16;;;;;;;0.40;0.40;;;;;;;11.81;60.60;99865.13;4960008;28;20034;-70
2021/11/01 12:23:42;;;;;;;0.50;0.50;;;;;;;11.80;58.99;99858.13;4959963;28;20027;-69
2021/11/01 12:26:13;;;;;;;0.47;0.47;;;;;;;11.82;60.74;99860.75;4959456;28;20045;-68
2021/11/01 12:28:39;;;;;;;0.50;0.50;;;;;;;11.78;59.69;99867.72;4960406;28;20142;-69
2021/11/01 12:31:07;;;;;;;0.50;0.50;;;;;;;11.60;60.29;99860.59;4959528;28;20386;-70
2021/11/01 12:33:37;;;;;;;0.50;0.50;;;;;;;11.50;61.80;99861.34;4959305;29;20031;-69
2021/11/01 12:36:04;;;;;;;0.37;0.37;;;;;;;11.47;62.19;99851.75;4959512;28;20082;-69
2021/11/01 12:38:51;;;;;;;0.40;0.40;;;;;;;11.55;62.32;99859.66;4959400;29;20027;-72
2021/11/01 12:41:52;;;;;;;0.40;0.40;;;;;;;11.59;61.35;99865.81;4958309;29;20051;-68
2021/11/01 12:57:32;;;;;;;0.50;0.50;;;;;;;11.48;61.41;99868.34;4960156;28;20031;-70
2021/11/01 12:59:58;;;;;;;0.30;0.30;;;;;;;11.40;62.44;99866.53;4958823;28;20302;-71
2021/11/01 13:02:25;;;;;;;0.60;0.60;;;;;;;11.37;61.92;99869.13;4958582;29;20049;-68
2021/11/01 13:04:51;;;;;;;0.40;0.40;;;;;;;11.41;62.64;99872.66;4959588;28;20031;-69
2021/11/01 13:10:00;;;;;;;0.50;0.50;;;;;;;11.34;63.83;99874.31;4959528;28;20390;-71
2021/11/01 13:12:42;;;;;;;0.47;0.47;;;;;;;11.29;64.09;99857.69;4959888;28;20037;-71
2021/11/01 13:20:25;;;;;;;0.40;0.40;;;;;;;11.19;63.72;99863.69;4958651;29;20306;-70
2021/11/01 13:22:55;;;;;;;0.30;0.30;;;;;;;11.19;64.95;99863.69;4958474;28;20023;-70
2021/11/01 13:25:36;;;;;;;0.50;0.50;;;;;;;11.19;64.48;99867.19;4958331;28;20038;-70
2021/11/01 13:28:26;;;;;;;0.50;0.50;;;;;;;11.26;64.29;99858.53;4955984;29;20376;-71
2021/11/01 13:38:57;;;;;;;0.50;0.50;;;;;;;11.34;64.02;99871.69;4954987;29;20185;-72
2021/11/01 13:41:28;;;;;;;0.40;0.40;;;;;;;11.35;64.09;99869.97;4956707;29;20737;-70
2021/11/01 13:44:06;;;;;;;0.40;0.40;;;;;;;11.41;63.68;99867.41;4955647;29;20083;-71
2021/11/01 13:46:31;;;;;;;0.43;0.43;;;;;;;11.40;64.51;99857.81;4954534;29;20050;-69
2021/11/01 13:48:58;;;;;;;0.40;0.40;;;;;;;11.41;64.98;99855.16;4938701;29;20280;-70
2021/11/01 13:51:28;;;;;;;0.60;0.60;;;;;;;11.41;65.17;99856.94;4957088;28;20423;-71
2021/11/01 13:54:50;;;;;;;0.47;0.47;;;;;;;11.35;64.44;99856.88;4950657;29;20034;-70
2021/11/01 13:56:48;;;;;;;0.40;0.40;;;;;;;11.31;62.53;99863.81;4961406;28;20097;-70
2021/11/01 14:18:15;;;;;;;0.37;0.37;;;;;;;11.13;63.29;99857.53;4961225;28;20031;-69
2021/11/01 14:34:10;;;;;;;0.40;0.40;;;;;;;10.69;61.46;99861.41;4961376;29;20067;-68
2021/11/01 14:56:40;;;;;;;0.40;0.40;;;;;;;10.39;62.49;99867.97;4959942;29;20047;-70
2021/11/01 14:59:14;;;;;;;0.40;0.40;;;;;;;10.25;63.54;99869.50;4959690;28;20086;-70
2021/11/01 15:27:37;;;;;;;0.30;0.30;;;;;;;9.68;69.17;99885.22;4958216;29;20114;-69
2021/11/01 15:41:17;;;;;;;0.40;0.40;;;;;;;9.78;69.31;99875.78;4958368;29;20210;-69
2021/11/01 16:15:22;;;;;;;0.40;0.40;;;;;;;9.80;68.84;99881.91;4958244;29;20034;-69
2021/11/01 16:17:07;;;;;;;0.30;0.30;;;;;;;9.07;70.68;99895.47;4959957;28;20046;-69
2021/11/01 16:19:49;;;;;;;0.20;0.20;;;;;;;9.00;70.87;99893.59;4954150;28;20115;-69
2021/11/01 16:22:21;;;;;;;0.17;0.17;;;;;;;9.01;70.65;99900.56;4958483;28;20039;-70
2021/11/01 16:24:51;;;;;;;0.30;0.30;;;;;;;8.95;71.07;99902.19;4960625;28;20027;-69
2021/11/01 16:27:20;;;;;;;0.50;0.50;;;;;;;8.90;71.00;99905.59;4959564;28;20070;-69
2021/11/01 16:35:03;;;;;;;0.30;0.30;;;;;;;8.80;70.95;99908.88;4960806;28;20402;-67
2021/11/01 16:40:01;;;;;;;0.37;0.37;;;;;;;8.68;71.94;99909.50;4958061;29;20031;-69
2021/11/01 16:42:31;;;;;;;0.20;0.20;;;;;;;8.64;72.55;99913.75;4943185;29;20067;-69
2021/11/01 16:45:10;;;;;;;0.20;0.20;;;;;;;8.60;71.39;99911.91;4959759;28;20042;-69
2021/11/01 16:47:36;;;;;;;0.30;0.30;;;;;;;8.55;71.82;99918.78;4943194;29;20047;-69
2021/11/01 16:50:05;;;;;;;0.30;0.30;;;;;;;8.49;71.96;99919.50;4958875;28;20023;-70
2021/11/01 16:52:43;;;;;;;0.40;0.40;;;;;;;8.48;72.30;99924.69;4974386;28;20035;-70
2021/11/01 16:55:16;;;;;;;0.20;0.20;;;;;;;8.39;72.16;99926.25;4959790;28;20058;-69
2021/11/01 16:57:49;;;;;;;0.37;0.37;;;;;;;8.35;72.44;99927.00;4975599;28;20035;-68
2021/11/01 17:00:36;;;;;;;0.43;0.43;;;;;;;8.35;72.70;99928.75;4959482;28;20047;-70
2021/11/01 17:21:16;;;;;;;0.37;0.37;;;;;;;8.13;73.38;99932.56;4959318;29;20123;-68
2021/11/01 17:22:19;;;;;;;0.23;0.23;;;;;;;8.09;74.40;99942.03;4958625;28;20065;-68
2021/11/01 18:39:52;;;;;;;0.10;0.10;;;;;;;7.69;78.56;99983.63;4957629;29;20046;-71
2021/11/01 18:53:03;;;;;;;0.20;0.20;;;;;;;7.62;78.67;100002.53;4959792;29;20074;-70
2021/11/01 18:55:40;;;;;;;0.10;0.10;;;;;;;7.63;78.82;100006.91;4960210;29;20058;-69
2021/11/01 18:58:06;;;;;;;0.20;0.20;;;;;;;7.64;78.52;100000.84;4957796;29;20050;-71
2021/11/01 19:00:38;;;;;;;0.20;0.20;;;;;;;7.59;79.16;100002.47;4959022;29;20043;-70
2021/11/01 19:03:05;;;;;;;0.20;0.20;;;;;;;7.56;79.22;100009.34;4957455;29;20106;-70
2021/11/01 19:05:40;;;;;;;0.10;0.10;;;;;;;7.50;79.47;100011.81;4955450;28;20094;-71
2021/11/01 19:08:14;;;;;;;0.20;0.20;;;;;;;7.48;79.29;100010.84;4949318;28;20046;-71
2021/11/01 19:13:57;;;;;;;0.10;0.10;;;;;;;7.45;79.62;100022.91;4973296;28;20039;-71
2021/11/01 20:06:15;;;;;;;0.20;0.20;;;;;;;7.22;79.14;99995.38;4953411;28;20041;-71
